Time;durP1;ratioP1;P1;durP2;ratioP2;P2;SDS_P1;SDS_P2;PMS_P1;PMS_P2;Temp;Humidity;BMP_temperature;BMP_pressure;BME280_temperature;BME280_humidity;BME280_pressure;Samples;Min_cycle;Max_cycle;Signal;HPM_P1;HPM_P2
2021/09/16 00:02:10;;;;;;;3.50;1.02;;;15.90;98.00;;;;;;5014412;28;20038;-68
2021/09/16 00:04:37;;;;;;;1.77;0.90;;;16.00;98.00;;;;;;5004863;28;20026;-68
2021/09/16 00:07:03;;;;;;;2.17;0.77;;;16.20;98.00;;;;;;5008734;28;20026;-68
2021/09/16 00:09:30;;;;;;;2.50;1.08;;;16.20;98.00;;;;;;4999371;28;20041;-68
2021/09/16 00:11:56;;;;;;;7.00;0.80;;;16.30;98.00;;;;;;4998476;28;20026;-68
2021/09/16 00:14:22;;;;;;;2.20;0.95;;;16.30;98.00;;;;;;5010098;28;20022;-68
2021/09/16 00:16:48;;;;;;;3.17;0.90;;;16.20;98.00;;;;;;4983321;28;20109;-68
2021/09/16 00:19:14;;;;;;;1.98;0.90;;;16.20;98.00;;;;;;4999794;28;20444;-68
2021/09/16 00:21:40;;;;;;;1.95;0.90;;;16.10;98.00;;;;;;4999499;28;20061;-68
2021/09/16 00:24:06;;;;;;;3.75;1.00;;;16.00;98.00;;;;;;4991078;28;20442;-68
2021/09/16 00:26:32;;;;;;;2.03;0.82;;;15.90;98.00;;;;;;5006922;28;20319;-68
2021/09/16 00:28:58;;;;;;;3.97;1.10;;;15.90;98.00;;;;;;4994284;28;20113;-68
2021/09/16 00:31:25;;;;;;;4.38;1.05;;;15.90;98.00;;;;;;5001239;28;20080;-68
2021/09/16 00:33:51;;;;;;;2.75;0.88;;;16.00;98.00;;;;;;5007529;28;20023;-68
2021/09/16 00:36:18;;;;;;;4.57;1.20;;;16.10;98.00;;;;;;4991528;28;20089;-68
2021/09/16 00:38:44;;;;;;;5.05;1.10;;;16.20;98.00;;;;;;4979583;28;20039;-68
2021/09/16 00:41:10;;;;;;;2.47;0.90;;;16.10;98.00;;;;;;4979400;28;20126;-68
2021/09/16 00:43:37;;;;;;;3.80;1.10;;;16.20;98.00;;;;;;4985271;28;20015;-68
2021/09/16 00:46:04;;;;;;;3.17;1.13;;;16.20;98.00;;;;;;4985896;28;20026;-68
2021/09/16 00:48:31;;;;;;;4.75;0.82;;;16.20;98.00;;;;;;4965838;28;20031;-68
2021/09/16 00:50:57;;;;;;;7.10;1.15;;;16.40;98.00;;;;;;4979083;28;20426;-68
2021/09/16 00:53:26;;;;;;;2.58;0.93;;;16.40;98.00;;;;;;4986732;28;20037;-68
2021/09/16 00:55:54;;;;;;;1.88;0.90;;;16.20;98.00;;;;;;4998989;28;20042;-68
2021/09/16 00:58:23;;;;;;;2.80;0.93;;;16.10;98.00;;;;;;4960749;28;20459;-68
2021/09/16 01:00:49;;;;;;;1.83;0.93;;;16.30;98.00;;;;;;4978964;28;20097;-68
2021/09/16 01:03:15;;;;;;;5.13;1.10;;;16.40;98.00;;;;;;4983759;28;20245;-68
2021/09/16 01:05:41;;;;;;;3.30;1.02;;;16.40;98.00;;;;;;4975099;28;20038;-68
2021/09/16 01:08:07;;;;;;;4.93;1.25;;;16.40;98.00;;;;;;4962782;28;20416;-68
2021/09/16 01:10:33;;;;;;;3.95;1.02;;;16.40;98.00;;;;;;4994630;28;20110;-68
2021/09/16 01:12:59;;;;;;;3.70;1.00;;;16.40;98.00;;;;;;4990764;28;20015;-68
2021/09/16 01:15:25;;;;;;;2.33;0.90;;;16.30;98.00;;;;;;4969588;28;20479;-68
2021/09/16 01:17:52;;;;;;;2.85;0.95;;;16.30;98.00;;;;;;4982881;28;20323;-68
2021/09/16 01:20:18;;;;;;;2.78;1.20;;;16.30;98.00;;;;;;4995930;28;20037;-68
2021/09/16 01:22:45;;;;;;;4.05;1.10;;;16.30;98.00;;;;;;4985273;28;20022;-68
2021/09/16 01:25:11;;;;;;;3.20;1.42;;;16.20;98.00;;;;;;4995160;28;20109;-68
2021/09/16 01:27:37;;;;;;;2.30;1.10;;;16.30;98.00;;;;;;4984358;28;20118;-68
2021/09/16 01:30:05;;;;;;;2.58;1.00;;;16.40;98.00;;;;;;4979536;28;20031;-68
2021/09/16 01:32:31;;;;;;;2.13;1.02;;;16.40;98.00;;;;;;4987370;28;20034;-68
2021/09/16 01:34:58;;;;;;;2.92;1.10;;;16.40;98.00;;;;;;4978811;28;20049;-68
2021/09/16 01:37:24;;;;;;;4.97;1.08;;;16.40;98.00;;;;;;4971233;28;20098;-68
2021/09/16 01:39:50;;;;;;;3.63;1.50;;;16.30;98.00;;;;;;4977741;28;20031;-68
2021/09/16 01:42:17;;;;;;;4.65;1.20;;;16.30;98.00;;;;;;4979142;28;20023;-68
2021/09/16 01:44:46;;;;;;;3.60;1.10;;;16.30;98.00;;;;;;4996668;28;20089;-68
2021/09/16 01:47:12;;;;;;;3.67;1.10;;;16.30;98.00;;;;;;4969674;28;20014;-69
2021/09/16 01:49:38;;;;;;;4.78;1.20;;;16.30;98.00;;;;;;4959387;28;20060;-68
2021/09/16 01:52:04;;;;;;;4.07;1.20;;;16.30;98.00;;;;;;4993032;28;20088;-68
2021/09/16 01:54:32;;;;;;;3.28;1.00;;;16.30;98.00;;;;;;4989049;28;20439;-68
2021/09/16 01:56:57;;;;;;;4.10;1.20;;;16.20;98.00;;;;;;4980487;28;20078;-68
2021/09/16 01:59:23;;;;;;;2.97;1.00;;;16.20;98.00;;;;;;4979765;28;20106;-68
2021/09/16 02:01:51;;;;;;;3.72;1.33;;;16.20;98.00;;;;;;4982617;28;20115;-68
2021/09/16 02:04:17;;;;;;;5.68;1.30;;;16.10;98.00;;;;;;4977715;28;20026;-68
2021/09/16 02:06:43;;;;;;;3.45;1.38;;;16.00;98.00;;;;;;4983424;28;20077;-68
2021/09/16 02:09:09;;;;;;;4.05;1.00;;;16.00;98.00;;;;;;4979301;28;20069;-68
2021/09/16 02:11:36;;;;;;;3.83;1.50;;;16.00;98.00;;;;;;4960211;28;20043;-68
2021/09/16 02:14:02;;;;;;;3.63;1.20;;;16.00;98.00;;;;;;4981849;28;20037;-68
2021/09/16 02:16:28;;;;;;;2.67;1.00;;;15.90;98.00;;;;;;4977258;28;20434;-68
2021/09/16 02:18:54;;;;;;;2.78;0.93;;;15.90;98.00;;;;;;4977556;28;20045;-68
2021/09/16 02:21:20;;;;;;;2.92;0.90;;;15.90;98.00;;;;;;4990019;28;20022;-68
2021/09/16 02:23:46;;;;;;;4.97;1.80;;;15.90;98.00;;;;;;4985493;28;20030;-69
2021/09/16 02:26:12;;;;;;;6.38;1.50;;;15.90;98.00;;;;;;4977566;28;20026;-68
2021/09/16 02:28:38;;;;;;;3.65;1.27;;;15.90;98.00;;;;;;4984992;28;20443;-68
2021/09/16 02:31:04;;;;;;;2.85;1.00;;;15.90;98.00;;;;;;4988088;28;20487;-68
2021/09/16 02:33:32;;;;;;;5.05;1.33;;;15.90;98.00;;;;;;4977794;28;20078;-68
2021/09/16 02:35:59;;;;;;;2.30;0.90;;;15.90;98.00;;;;;;4977640;28;20026;-68
2021/09/16 02:38:25;;;;;;;4.93;1.30;;;15.90;98.00;;;;;;4977640;28;20030;-68
2021/09/16 02:40:51;;;;;;;3.92;1.13;;;15.80;98.00;;;;;;4977460;28;20082;-68
2021/09/16 02:43:17;;;;;;;2.55;1.20;;;15.80;98.00;;;;;;4979725;28;20030;-68
2021/09/16 02:45:44;;;;;;;2.90;1.40;;;15.80;98.00;;;;;;4985325;28;20029;-68
2021/09/16 02:48:11;;;;;;;5.65;1.30;;;15.80;98.00;;;;;;4984238;28;20030;-68
2021/09/16 02:50:37;;;;;;;2.33;0.88;;;15.80;98.00;;;;;;4958323;28;20086;-68
2021/09/16 02:53:03;;;;;;;4.75;1.13;;;15.80;98.00;;;;;;4980902;28;20432;-68
2021/09/16 02:55:29;;;;;;;3.97;1.10;;;15.80;98.00;;;;;;4970211;28;20451;-68
2021/09/16 02:57:57;;;;;;;4.32;1.70;;;15.80;98.00;;;;;;4980782;28;20078;-68
2021/09/16 03:00:23;;;;;;;3.67;1.15;;;15.80;98.00;;;;;;4976628;28;20027;-68
2021/09/16 03:02:49;;;;;;;4.70;1.75;;;15.80;98.00;;;;;;4983356;28;20023;-68
2021/09/16 03:05:15;;;;;;;4.30;1.20;;;15.80;98.00;;;;;;4960716;28;20037;-68
2021/09/16 03:07:41;;;;;;;2.30;1.20;;;15.80;98.00;;;;;;4971199;28;20320;-68
2021/09/16 03:10:08;;;;;;;3.90;1.13;;;15.90;98.00;;;;;;4982346;28;20034;-68
2021/09/16 03:12:34;;;;;;;5.00;1.48;;;15.80;98.00;;;;;;4960792;28;20030;-68
2021/09/16 03:15:02;;;;;;;8.00;1.92;;;15.80;98.00;;;;;;4985050;28;20031;-68
2021/09/16 03:17:28;;;;;;;3.40;1.33;;;15.70;98.00;;;;;;4977497;28;20037;-68
2021/09/16 03:19:54;;;;;;;5.70;1.30;;;15.70;98.00;;;;;;4976318;28;20031;-69
2021/09/16 03:22:20;;;;;;;4.88;1.20;;;15.70;98.00;;;;;;4975689;28;20416;-68
2021/09/16 03:24:46;;;;;;;3.90;1.33;;;15.80;98.00;;;;;;4985525;28;20413;-68
2021/09/16 03:27:12;;;;;;;4.25;1.40;;;15.80;98.00;;;;;;4984828;28;20109;-68
2021/09/16 03:29:37;;;;;;;4.65;1.20;;;15.90;98.00;;;;;;4970022;28;20066;-68
2021/09/16 03:32:05;;;;;;;5.75;1.50;;;15.90;98.00;;;;;;4981761;28;20038;-68
2021/09/16 03:34:31;;;;;;;7.78;1.27;;;15.90;98.00;;;;;;4983802;28;20494;-68
2021/09/16 03:36:57;;;;;;;3.13;1.45;;;16.00;98.00;;;;;;4965573;28;20034;-68
2021/09/16 03:39:23;;;;;;;4.85;1.35;;;16.00;98.00;;;;;;4965616;28;20023;-68
2021/09/16 03:41:49;;;;;;;6.38;1.58;;;16.00;98.00;;;;;;4931045;28;20388;-68
2021/09/16 03:44:15;;;;;;;3.78;1.27;;;16.10;98.00;;;;;;4968027;28;20022;-68
2021/09/16 03:46:41;;;;;;;7.18;1.50;;;16.10;98.00;;;;;;4972253;28;20060;-68
2021/09/16 03:49:07;;;;;;;4.72;1.40;;;16.20;98.00;;;;;;4989117;28;20110;-68
2021/09/16 03:51:33;;;;;;;2.67;1.30;;;16.10;98.00;;;;;;4979979;28;20041;-68
2021/09/16 03:53:59;;;;;;;5.25;1.40;;;16.20;98.00;;;;;;4981428;28;20412;-68
2021/09/16 03:56:25;;;;;;;3.90;1.40;;;16.30;98.00;;;;;;4983442;28;20038;-68
2021/09/16 03:58:51;;;;;;;2.65;1.35;;;16.30;98.00;;;;;;4979016;28;20118;-68
2021/09/16 04:01:17;;;;;;;5.57;1.50;;;16.30;98.00;;;;;;4986775;28;20026;-68
2021/09/16 04:03:43;;;;;;;4.45;1.33;;;16.30;98.00;;;;;;4973961;28;20361;-68
2021/09/16 04:06:09;;;;;;;5.45;1.90;;;16.40;98.00;;;;;;4989799;28;20026;-68
2021/09/16 04:08:34;;;;;;;3.92;1.33;;;16.40;98.00;;;;;;4993702;28;20058;-68
2021/09/16 04:11:00;;;;;;;7.63;2.03;;;16.40;98.00;;;;;;4979545;28;20031;-68
2021/09/16 04:13:26;;;;;;;3.65;1.27;;;16.50;98.00;;;;;;4978720;28;20371;-68
2021/09/16 04:15:53;;;;;;;9.18;1.60;;;16.40;98.00;;;;;;4985642;28;20033;-68
2021/09/16 04:18:19;;;;;;;5.28;1.40;;;16.40;98.00;;;;;;4982086;28;20027;-68
2021/09/16 04:20:45;;;;;;;7.38;1.60;;;16.30;98.00;;;;;;4978363;28;20026;-68
2021/09/16 04:23:10;;;;;;;5.57;2.08;;;16.20;98.00;;;;;;4979933;28;20518;-68
2021/09/16 04:25:36;;;;;;;4.75;1.60;;;16.30;98.00;;;;;;4981351;28;20038;-68
2021/09/16 04:28:02;;;;;;;7.60;1.67;;;16.30;98.00;;;;;;4982496;28;20030;-68
2021/09/16 04:30:28;;;;;;;4.50;1.33;;;16.30;98.00;;;;;;4978883;28;20058;-68
2021/09/16 04:32:54;;;;;;;3.75;1.63;;;16.20;98.00;;;;;;4979228;28;20031;-68
2021/09/16 04:35:20;;;;;;;4.18;1.50;;;16.20;98.00;;;;;;4980547;28;20416;-68
2021/09/16 04:37:46;;;;;;;3.80;2.00;;;16.10;98.00;;;;;;4962773;28;20038;-68
2021/09/16 04:40:12;;;;;;;4.88;1.70;;;16.10;98.00;;;;;;4987853;28;20101;-68
2021/09/16 04:42:39;;;;;;;4.22;1.50;;;16.10;98.00;;;;;;4980200;28;20058;-68
2021/09/16 04:45:07;;;;;;;3.83;1.42;;;16.10;98.00;;;;;;4977846;28;20428;-68
2021/09/16 04:47:33;;;;;;;6.07;1.77;;;16.10;98.00;;;;;;4979255;28;20383;-68
2021/09/16 04:49:59;;;;;;;2.67;1.33;;;16.10;98.00;;;;;;4979858;28;20032;-68
2021/09/16 04:52:27;;;;;;;4.60;1.60;;;16.10;98.00;;;;;;4978807;28;20038;-68
2021/09/16 04:54:53;;;;;;;5.97;1.48;;;16.10;98.00;;;;;;4960788;28;20066;-68
2021/09/16 04:57:19;;;;;;;3.83;1.50;;;16.00;98.00;;;;;;4977393;28;20094;-68
2021/09/16 04:59:45;;;;;;;3.42;1.40;;;16.00;98.00;;;;;;4968753;28;20030;-69
2021/09/16 05:02:11;;;;;;;3.53;1.30;;;16.00;98.00;;;;;;4979365;28;20110;-68
2021/09/16 05:04:36;;;;;;;3.67;1.52;;;16.00;98.00;;;;;;4975712;28;20102;-68
2021/09/16 05:07:03;;;;;;;4.10;1.77;;;16.00;98.00;;;;;;4970933;28;20346;-68
2021/09/16 05:09:29;;;;;;;10.05;1.98;;;16.00;98.00;;;;;;4981218;28;20034;-68
2021/09/16 05:11:56;;;;;;;2.67;1.23;;;16.00;98.00;;;;;;4960666;28;20428;-68
2021/09/16 05:14:22;;;;;;;5.80;1.98;;;16.00;98.00;;;;;;4979170;28;20039;-68
2021/09/16 05:16:48;;;;;;;4.13;1.50;;;16.00;98.00;;;;;;4979018;28;20101;-68
2021/09/16 05:19:13;;;;;;;10.00;2.42;;;16.00;98.00;;;;;;4979069;28;20031;-68
2021/09/16 05:21:39;;;;;;;4.22;1.70;;;16.00;98.00;;;;;;4979031;28;20023;-68
2021/09/16 05:24:05;;;;;;;6.90;1.83;;;16.10;98.00;;;;;;4978899;28;20030;-68
2021/09/16 05:26:31;;;;;;;5.55;2.00;;;16.20;98.00;;;;;;4986020;28;20301;-68
2021/09/16 05:28:57;;;;;;;5.72;1.80;;;16.40;98.00;;;;;;4985809;28;20030;-68
2021/09/16 05:31:23;;;;;;;7.25;2.55;;;16.50;98.00;;;;;;4978927;28;20026;-68
2021/09/16 05:33:49;;;;;;;9.55;2.00;;;16.50;98.00;;;;;;4961395;28;20058;-68
2021/09/16 05:36:15;;;;;;;4.28;1.52;;;16.60;98.00;;;;;;4959459;29;20027;-68
2021/09/16 05:38:40;;;;;;;6.47;2.03;;;16.70;98.00;;;;;;4959403;29;20447;-68
2021/09/16 05:41:06;;;;;;;4.93;1.60;;;16.80;98.00;;;;;;4977776;28;20062;-68
2021/09/16 05:43:32;;;;;;;4.53;1.50;;;16.90;98.00;;;;;;4977545;28;20034;-68
2021/09/16 05:45:58;;;;;;;6.28;2.20;;;17.00;98.00;;;;;;4978723;28;20090;-68
2021/09/16 05:48:25;;;;;;;3.97;1.65;;;17.10;98.00;;;;;;4961365;28;20030;-68
2021/09/16 05:50:50;;;;;;;3.97;1.63;;;17.10;98.00;;;;;;4978253;28;20114;-68
2021/09/16 05:53:16;;;;;;;9.38;1.92;;;17.10;98.00;;;;;;4961224;28;20058;-68
2021/09/16 05:55:42;;;;;;;5.72;2.00;;;17.10;98.00;;;;;;4978448;28;20110;-68
2021/09/16 05:58:08;;;;;;;5.95;2.10;;;16.90;98.00;;;;;;4976773;28;20043;-68
2021/09/16 06:00:34;;;;;;;9.40;2.58;;;16.90;98.00;;;;;;4978211;28;20026;-68
2021/09/16 06:03:00;;;;;;;5.35;1.98;;;16.90;98.00;;;;;;4979102;28;20022;-68
2021/09/16 06:05:26;;;;;;;6.82;2.00;;;16.90;98.00;;;;;;4959855;28;20045;-68
2021/09/16 06:07:52;;;;;;;4.55;1.85;;;16.90;98.00;;;;;;4958896;29;20488;-68
2021/09/16 06:10:18;;;;;;;9.00;1.95;;;16.90;98.00;;;;;;4941605;29;20030;-68
2021/09/16 06:12:44;;;;;;;5.57;1.83;;;16.90;98.00;;;;;;4957617;29;20024;-68
2021/09/16 06:15:10;;;;;;;5.68;1.95;;;16.90;98.00;;;;;;4958743;29;20107;-68
2021/09/16 06:17:36;;;;;;;6.07;2.08;;;17.00;98.00;;;;;;4958742;29;20439;-68
2021/09/16 06:20:06;;;;;;;4.05;1.90;;;17.10;98.00;;;;;;4958649;29;20114;-68
2021/09/16 06:22:32;;;;;;;5.72;1.90;;;17.20;98.00;;;;;;4976220;28;20106;-68
2021/09/16 06:24:58;;;;;;;7.25;2.80;;;17.30;98.00;;;;;;4976912;28;20026;-68
2021/09/16 06:27:24;;;;;;;4.88;2.05;;;17.50;98.00;;;;;;4976633;28;20019;-68
2021/09/16 06:29:51;;;;;;;4.28;2.20;;;17.60;98.00;;;;;;4977801;28;20439;-68
2021/09/16 06:32:17;;;;;;;5.30;2.10;;;17.90;98.00;;;;;;4976701;28;20376;-68
2021/09/16 06:34:43;;;;;;;7.13;1.90;;;18.20;98.00;;;;;;4965908;28;20106;-68
2021/09/16 06:37:09;;;;;;;6.88;2.08;;;18.30;98.00;;;;;;4958373;28;20054;-68
2021/09/16 06:39:35;;;;;;;4.43;1.63;;;18.40;98.00;;;;;;4958346;29;20328;-68
2021/09/16 06:42:01;;;;;;;7.10;2.45;;;18.50;98.00;;;;;;4957141;29;20849;-68
2021/09/16 06:44:27;;;;;;;5.97;2.00;;;18.60;98.00;;;;;;4958355;29;20055;-68
2021/09/16 06:46:53;;;;;;;7.25;2.30;;;18.70;98.00;;;;;;4958206;29;20051;-68
2021/09/16 06:49:18;;;;;;;7.47;2.53;;;18.90;98.00;;;;;;4958232;29;20444;-68
2021/09/16 06:51:44;;;;;;;5.90;2.78;;;19.00;97.80;;;;;;4958254;29;20031;-68
2021/09/16 06:54:10;;;;;;;5.07;2.60;;;19.20;97.80;;;;;;4958104;29;20023;-68
2021/09/16 06:56:36;;;;;;;8.60;3.05;;;19.40;96.80;;;;;;4957877;29;20102;-68
2021/09/16 06:59:02;;;;;;;7.32;3.22;;;19.50;96.60;;;;;;4956881;29;20075;-68
2021/09/16 07:01:28;;;;;;;5.63;1.85;;;19.50;97.00;;;;;;4957349;28;20027;-68
2021/09/16 07:03:55;;;;;;;6.47;1.90;;;19.70;96.20;;;;;;4966655;28;20053;-68
2021/09/16 07:06:23;;;;;;;6.97;1.80;;;19.80;96.30;;;;;;4993714;28;20057;-68
2021/09/16 07:08:50;;;;;;;5.40;1.90;;;19.80;96.10;;;;;;4977359;28;20084;-68
2021/09/16 07:11:16;;;;;;;6.95;2.20;;;19.80;95.80;;;;;;4975961;28;20115;-68
2021/09/16 07:13:42;;;;;;;6.53;2.17;;;19.80;96.10;;;;;;4970517;28;20062;-68
2021/09/16 07:16:08;;;;;;;4.72;2.20;;;19.70;96.20;;;;;;4975589;28;20437;-68
2021/09/16 07:18:34;;;;;;;6.70;2.30;;;19.80;96.50;;;;;;4969957;28;20338;-68
2021/09/16 07:21:01;;;;;;;5.22;2.00;;;19.90;96.20;;;;;;4968668;28;20202;-69
2021/09/16 07:23:27;;;;;;;6.60;2.90;;;19.80;95.90;;;;;;4991251;28;20030;-68
2021/09/16 07:25:53;;;;;;;5.35;1.80;;;20.00;96.20;;;;;;4976913;28;20027;-69
2021/09/16 07:28:19;;;;;;;7.22;2.30;;;20.20;95.50;;;;;;4968875;28;20019;-68
2021/09/16 07:30:45;;;;;;;6.82;2.30;;;20.30;95.20;;;;;;4957635;29;20106;-69
2021/09/16 07:33:12;;;;;;;5.40;2.22;;;20.50;94.40;;;;;;4957704;29;20420;-68
2021/09/16 07:35:40;;;;;;;6.28;2.15;;;20.60;93.80;;;;;;4957720;29;20034;-68
2021/09/16 07:38:06;;;;;;;3.70;1.60;;;20.50;93.70;;;;;;4959246;28;20039;-68
2021/09/16 07:40:32;;;;;;;5.03;2.45;;;20.50;93.80;;;;;;4988368;28;20031;-68
2021/09/16 07:42:58;;;;;;;4.95;1.92;;;20.50;94.00;;;;;;4975693;28;20447;-68
2021/09/16 07:45:24;;;;;;;6.05;2.10;;;20.60;93.90;;;;;;4975468;28;20038;-68
2021/09/16 07:47:50;;;;;;;4.68;1.88;;;20.70;93.80;;;;;;4953542;28;20034;-68
2021/09/16 07:50:16;;;;;;;7.47;1.90;;;20.90;93.90;;;;;;4982573;28;20306;-68
2021/09/16 07:52:42;;;;;;;7.75;2.20;;;20.90;93.90;;;;;;4964378;28;20027;-68
2021/09/16 07:55:10;;;;;;;5.97;1.80;;;21.10;93.00;;;;;;4976676;28;20033;-68
2021/09/16 07:57:36;;;;;;;6.03;2.10;;;20.90;93.10;;;;;;4954499;28;20059;-69
2021/09/16 08:00:05;;;;;;;6.80;2.13;;;20.50;93.30;;;;;;4957338;28;20029;-68
2021/09/16 08:02:30;;;;;;;4.15;1.58;;;20.10;95.00;;;;;;4957565;29;20051;-68
2021/09/16 08:04:56;;;;;;;6.03;1.48;;;19.80;95.90;;;;;;4974175;28;20046;-68
2021/09/16 08:07:22;;;;;;;6.18;1.70;;;19.60;96.10;;;;;;4966034;28;20034;-68
2021/09/16 08:09:48;;;;;;;8.88;3.10;;;19.70;96.20;;;;;;4976075;28;20034;-68
2021/09/16 08:12:14;;;;;;;5.50;1.85;;;19.80;95.90;;;;;;4975528;28;20034;-68
2021/09/16 08:14:40;;;;;;;8.15;1.83;;;19.80;95.80;;;;;;4980339;28;20416;-68
2021/09/16 08:17:06;;;;;;;6.43;2.20;;;19.70;96.10;;;;;;4980349;28;20050;-68
2021/09/16 08:19:38;;;;;;;7.65;2.00;;;19.60;96.60;;;;;;4980074;28;20470;-68
2021/09/16 08:22:04;;;;;;;8.10;2.70;;;19.40;97.40;;;;;;4979836;28;20023;-68
2021/09/16 08:24:30;;;;;;;5.45;2.13;;;19.40;97.60;;;;;;4980135;28;20023;-68
2021/09/16 08:26:56;;;;;;;7.25;2.17;;;19.60;97.60;;;;;;4978839;28;20534;-68
2021/09/16 08:29:22;;;;;;;7.80;2.80;;;19.60;97.50;;;;;;4980076;28;20039;-68
2021/09/16 08:31:49;;;;;;;5.93;2.10;;;19.50;97.20;;;;;;4979903;28;20479;-68
2021/09/16 08:34:16;;;;;;;5.85;2.20;;;19.50;97.60;;;;;;4979923;28;20182;-68
2021/09/16 08:36:42;;;;;;;8.57;2.60;;;19.50;97.80;;;;;;4962818;28;20475;-68
2021/09/16 08:39:08;;;;;;;6.90;3.17;;;19.30;97.70;;;;;;4979867;28;20443;-68
2021/09/16 08:41:37;;;;;;;8.32;2.53;;;19.20;97.80;;;;;;4962776;28;20027;-68
2021/09/16 08:44:04;;;;;;;7.95;3.35;;;19.20;98.00;;;;;;4978450;28;20582;-68
2021/09/16 08:46:30;;;;;;;6.97;2.50;;;19.40;97.60;;;;;;4979767;28;20031;-68
2021/09/16 08:48:56;;;;;;;6.10;2.63;;;19.40;97.80;;;;;;4979666;28;20309;-68
2021/09/16 08:51:22;;;;;;;8.60;3.10;;;19.30;98.00;;;;;;4977564;28;20109;-68
2021/09/16 08:53:51;;;;;;;7.28;3.15;;;19.20;98.00;;;;;;4972321;28;20031;-68
2021/09/16 08:56:17;;;;;;;6.13;3.13;;;19.20;98.00;;;;;;4971264;28;20432;-69
2021/09/16 08:58:45;;;;;;;6.85;3.10;;;19.00;98.00;;;;;;4981040;28;20041;-68
2021/09/16 09:01:11;;;;;;;7.35;3.80;;;18.60;98.00;;;;;;4979599;28;20030;-68
2021/09/16 09:03:37;;;;;;;10.18;3.72;;;18.30;98.00;;;;;;4979214;28;20051;-68
2021/09/16 09:06:03;;;;;;;10.30;3.85;;;18.10;98.00;;;;;;4979262;28;20027;-69
2021/09/16 09:08:29;;;;;;;6.13;3.60;;;18.00;98.00;;;;;;4979363;28;20022;-69
2021/09/16 09:11:00;;;;;;;13.00;4.00;;;17.90;98.00;;;;;;4979412;28;20344;-69
2021/09/16 09:13:29;;;;;;;7.93;3.17;;;17.90;97.60;;;;;;4960888;28;20022;-69
2021/09/16 09:16:12;;;;;;;6.50;3.03;;;17.90;98.00;;;;;;4968234;28;20024;-69
2021/09/16 09:18:47;;;;;;;7.90;2.67;;;18.00;98.00;;;;;;4959634;29;20023;-69
2021/09/16 09:21:15;;;;;;;5.70;2.47;;;18.00;98.00;;;;;;4962955;28;20022;-69
2021/09/16 09:23:44;;;;;;;6.82;2.80;;;18.00;98.00;;;;;;4991748;28;20109;-69
2021/09/16 09:26:26;;;;;;;5.18;2.90;;;18.00;98.00;;;;;;4960045;28;20023;-70
2021/09/16 09:29:13;;;;;;;5.72;3.72;;;18.00;98.00;;;;;;4958424;29;20028;-71
2021/09/16 09:31:42;;;;;;;8.90;4.18;;;18.00;98.00;;;;;;4964609;28;21570;-70
2021/09/16 09:34:31;;;;;;;6.75;3.38;;;17.60;98.00;;;;;;4998271;28;20023;-70
2021/09/16 09:37:19;;;;;;;16.92;7.00;;;17.30;97.80;;;;;;4968579;28;20035;-71
2021/09/16 09:39:47;;;;;;;10.02;3.10;;;17.20;96.50;;;;;;4942331;29;20031;-71
2021/09/16 09:42:24;;;;;;;14.07;3.65;;;16.70;97.20;;;;;;4965759;28;20054;-70
2021/09/16 09:45:09;;;;;;;13.48;2.78;;;16.40;97.10;;;;;;4978513;28;20046;-70
2021/09/16 09:47:44;;;;;;;3.28;1.50;;;16.10;96.90;;;;;;4975479;28;20031;-71
2021/09/16 09:50:37;;;;;;;;;;;15.90;96.80;;;;;;4980505;28;20023;-71
2021/09/16 09:53:14;;;;;;;6.00;1.85;;;15.70;95.50;;;;;;4995650;28;19916;-70
2021/09/16 09:55:40;;;;;;;6.65;2.42;;;15.50;94.20;;;;;;4973629;28;20436;-71
2021/09/16 09:58:07;;;;;;;8.82;2.20;;;15.50;94.00;;;;;;4980932;28;20049;-71
2021/09/16 10:00:34;;;;;;;4.35;1.80;;;15.50;94.30;;;;;;4982037;28;20065;-71
2021/09/16 10:03:00;;;;;;;10.80;2.58;;;15.50;94.40;;;;;;4982364;28;20026;-71
2021/09/16 10:05:35;;;;;;;3.47;1.70;;;15.40;93.90;;;;;;4997692;28;20030;-71
2021/09/16 10:08:11;;;;;;;9.00;1.92;;;15.40;93.50;;;;;;4976261;28;20015;-71
2021/09/16 10:10:43;;;;;;;6.18;2.40;;;15.40;93.50;;;;;;4964130;28;20365;-71
2021/09/16 10:13:17;;;;;;;5.78;1.73;;;15.30;94.20;;;;;;4957721;28;20027;-71
2021/09/16 10:15:45;;;;;;;10.85;2.40;;;15.30;92.80;;;;;;4975667;28;20027;-71
2021/09/16 10:18:11;;;;;;;6.32;2.83;;;15.20;92.80;;;;;;4976811;28;20085;-71
2021/09/16 10:20:38;;;;;;;14.80;2.72;;;15.20;93.00;;;;;;4977937;28;20027;-71
2021/09/16 10:23:08;;;;;;;4.90;1.80;;;15.20;92.50;;;;;;4977769;28;20098;-71
2021/09/16 10:25:41;;;;;;;2.30;1.10;;;15.30;92.20;;;;;;4986943;28;20026;-71
2021/09/16 10:28:08;;;;;;;3.10;1.50;;;15.40;92.30;;;;;;4996145;28;20046;-71
2021/09/16 10:30:43;;;;;;;2.72;1.40;;;15.40;92.80;;;;;;4995437;28;20034;-70
2021/09/16 10:33:23;;;;;;;2.80;1.35;;;15.30;93.00;;;;;;4982820;28;20026;-70
2021/09/16 10:36:07;;;;;;;2.53;1.40;;;15.20;93.40;;;;;;4982810;28;20034;-70
2021/09/16 10:38:45;;;;;;;2.50;1.40;;;15.20;93.00;;;;;;4957957;28;20439;-70
2021/09/16 10:41:26;;;;;;;4.40;1.50;;;15.10;93.70;;;;;;4958384;29;20421;-70
2021/09/16 10:43:58;;;;;;;3.15;1.75;;;15.20;92.80;;;;;;4979054;28;20054;-70
2021/09/16 10:46:33;;;;;;;3.72;2.00;;;15.20;92.50;;;;;;4964657;28;20031;-70
2021/09/16 10:49:28;;;;;;;3.08;1.75;;;15.20;92.80;;;;;;4980814;28;20050;-70
2021/09/16 10:52:16;;;;;;;6.53;2.50;;;15.30;92.60;;;;;;4985585;28;20030;-70
2021/09/16 10:54:57;;;;;;;5.13;2.50;;;15.40;92.30;;;;;;4967932;28;20030;-71
2021/09/16 10:57:29;;;;;;;4.55;2.55;;;15.60;92.30;;;;;;4984022;28;20150;-70
2021/09/16 10:59:58;;;;;;;10.60;3.58;;;15.70;93.90;;;;;;4986588;28;20022;-70
2021/09/16 11:02:45;;;;;;;7.30;2.92;;;15.60;94.20;;;;;;4979903;28;20066;-70
2021/09/16 11:05:20;;;;;;;5.82;3.10;;;15.70;94.60;;;;;;4986253;28;20113;-70
2021/09/16 11:07:49;;;;;;;5.35;2.85;;;15.70;95.10;;;;;;4977736;28;20502;-70
2021/09/16 11:10:15;;;;;;;4.93;2.78;;;15.90;95.60;;;;;;4982715;28;20033;-70
2021/09/16 11:12:56;;;;;;;13.25;5.93;;;15.70;96.90;;;;;;4979864;28;20031;-70
2021/09/16 11:15:30;;;;;;;5.93;3.67;;;15.70;96.50;;;;;;4980835;28;20084;-69
2021/09/16 11:18:14;;;;;;;7.20;5.07;;;15.60;96.30;;;;;;4983805;28;20435;-70
2021/09/16 11:20:45;;;;;;;8.60;5.25;;;15.50;95.80;;;;;;4983411;28;20297;-70
2021/09/16 11:23:12;;;;;;;9.32;6.13;;;15.60;95.30;;;;;;4960480;28;20030;-69
2021/09/16 11:25:45;;;;;;;7.78;5.30;;;15.50;95.50;;;;;;4983469;28;20023;-70
2021/09/16 11:28:13;;;;;;;8.97;6.10;;;15.40;95.20;;;;;;4962921;28;20027;-69
2021/09/16 11:30:40;;;;;;;8.25;5.53;;;15.50;94.80;;;;;;4962333;28;20527;-69
2021/09/16 11:33:13;;;;;;;8.90;6.50;;;15.30;95.20;;;;;;4979687;28;20113;-69
2021/09/16 11:35:39;;;;;;;9.90;7.30;;;15.30;95.10;;;;;;4960119;28;20117;-69
2021/09/16 11:38:07;;;;;;;9.32;7.03;;;15.30;95.20;;;;;;4971608;28;20038;-69
2021/09/16 11:40:35;;;;;;;11.30;7.88;;;15.30;94.90;;;;;;4976662;28;20309;-69
2021/09/16 11:43:04;;;;;;;12.13;8.65;;;15.40;94.50;;;;;;4958306;28;20030;-69
2021/09/16 11:45:38;;;;;;;13.70;9.00;;;15.50;94.10;;;;;;4976753;28;20420;-69
2021/09/16 11:48:16;;;;;;;14.18;9.18;;;15.50;94.90;;;;;;4965901;28;20043;-69
2021/09/16 11:50:48;;;;;;;13.63;8.93;;;15.40;95.50;;;;;;4982001;28;20061;-69
2021/09/16 11:53:18;;;;;;;12.88;8.93;;;15.40;95.70;;;;;;4997961;28;20030;-69
2021/09/16 11:55:56;;;;;;;14.13;9.20;;;15.40;95.80;;;;;;4980472;28;20063;-69
2021/09/16 11:58:38;;;;;;;14.13;9.68;;;15.40;95.40;;;;;;4981559;28;20053;-69
2021/09/16 12:01:09;;;;;;;13.18;9.35;;;15.50;95.60;;;;;;4980665;28;20451;-69
2021/09/16 12:03:40;;;;;;;14.13;9.32;;;15.60;96.30;;;;;;4979950;28;20077;-69
2021/09/16 12:06:15;;;;;;;12.48;9.32;;;15.60;96.40;;;;;;4962298;28;20085;-69
2021/09/16 12:08:53;;;;;;;13.88;9.15;;;15.70;96.70;;;;;;4980593;28;20050;-69
2021/09/16 12:11:24;;;;;;;12.23;8.88;;;15.90;97.60;;;;;;4976397;28;20145;-69
2021/09/16 12:13:58;;;;;;;11.63;7.97;;;16.10;97.40;;;;;;4980177;28;20037;-70
2021/09/16 12:16:33;;;;;;;10.35;8.20;;;16.30;98.00;;;;;;4975677;28;20428;-69
2021/09/16 12:19:00;;;;;;;13.73;10.25;;;16.10;98.00;;;;;;4992846;28;20432;-69
2021/09/16 12:21:30;;;;;;;15.77;11.10;;;15.80;98.00;;;;;;4997600;28;20038;-69
2021/09/16 12:24:02;;;;;;;15.02;10.88;;;15.80;98.00;;;;;;4997972;28;20084;-69
2021/09/16 12:26:36;;;;;;;16.58;11.57;;;15.80;98.00;;;;;;4982724;28;20026;-69
2021/09/16 12:29:06;;;;;;;14.90;10.63;;;15.80;98.00;;;;;;4990537;28;20042;-69
2021/09/16 12:31:34;;;;;;;16.20;11.32;;;15.80;98.00;;;;;;4995861;28;20293;-69
2021/09/16 12:34:06;;;;;;;18.08;12.68;;;15.80;98.00;;;;;;4980558;28;20037;-69
2021/09/16 12:36:35;;;;;;;15.68;11.43;;;15.80;98.00;;;;;;4973436;28;20035;-69
2021/09/16 12:39:10;;;;;;;16.63;12.27;;;15.70;98.00;;;;;;4974109;28;20039;-69
2021/09/16 12:41:42;;;;;;;18.70;12.00;;;15.80;98.00;;;;;;4959463;29;20034;-69
2021/09/16 12:44:20;;;;;;;20.00;12.68;;;15.80;98.00;;;;;;4987937;28;20023;-69
2021/09/16 12:46:59;;;;;;;19.70;12.95;;;15.90;98.00;;;;;;4999390;28;20431;-68
2021/09/16 12:49:41;;;;;;;20.88;14.20;;;16.00;98.00;;;;;;4983214;28;20038;-69
2021/09/16 12:52:29;;;;;;;26.52;15.90;;;16.00;98.00;;;;;;4979606;28;20022;-69